Fort Snelling, MN (55111)

3:23 AM CDT on March 29, 2015 (GMT -0500)
Fort Snelling State Park | | Change Station
CLOSE
Current Station
Personal Weather Station
Location: Saint Paul, MN
Elevation: 682 ft
Nearby Weather Stations

Elev 682 ft 44.87 °N, 93.19 °W | Updated 9 minutes ago

Partly Cloudy
Partly Cloudy
37.3 °F
Feels Like 37 °F
N
3.0
Wind Variable Wind from NNE
Gusts 8.0 mph

Today
High -- | Low -- °F
--% Chance of Precip.
Yesterday
High -- | Low -- °F
Precip. -- in
6:59 AM 7:36 PM
Waxing Gibbous, 69% visible
Pressure 29.86 in
Visibility 10.0 miles
Clouds Few 25000 ft
Windchill 37 °F
Dew Point 26 °F
Humidity 63%
Rainfall 0.00 in
Snow Depth Not available.
UV 0 out of 12
Pollen 1.80 out of 12
Air Quality Not available.
Flu Activity Not available.
METAR KMSP 290753Z 16019G24KT 10SM FEW250 03/M06 A2984 RMK AO2 PK WND 16026/0736 SLP110 T00281056

More Conditions Fewer Conditions

Pressure 29.86 in
Visibility 10.0 miles
Clouds Few 25000 ft
Windchill 37 °F
Dew Point 26 °F
Humidity 63%
Rainfall 0.00 in
Snow Depth Not available.
UV 0 out of 12
Pollen 1.80 out of 12
Air Quality Not available.
Flu Activity Not available.
METAR KMSP 290753Z 16019G24KT 10SM FEW250 03/M06 A2984 RMK AO2 PK WND 16026/0736 SLP110 T00281056

More Conditions Fewer Conditions

10-Day Weather Forecast

Almanac

Astronomy

Mar. 29, 2015 Rise Set
Actual Time
Civil Twilight
Nautical Twilight
Astronomical Twilight
Moon
Length of Visible Light
Length of Day
Tomorrow will be .
, % of the Moon is Illuminated

Today's Extremes

State Highs State Lows

Community

WunderPhotos

Upload Photos

1,809,187 photos uploaded!

WunderBlogs® & News

Nearby

Air Quality

  Air Quality AQ Index Pollutant
Not available.

Snow Depth

Station Depth Elevation

Earthquake Activity

City Distance Mag. Time & Date
Minimum magnitude displayed is 2.5.

Coastal Water Temperatures

Place Temperature

Stations

Nearby Weather Stations

Station Location Temp. Windchill Dew Point Humidity Wind Precip. Elev Updated Type